Stena Germanica — SKPZ — position and weather

sailwx.info

Track history (hours):
 
Tides and Currents Weather Stations Pressure Air Temp Water Temp Dewpoint Dewpoint Depression Visibility Wind Speed Wind Dir Waves Ship Positions

Stena Germanica

Last reported at 2015-May-30 19:11 UTC. Time now 2015-May-30 20:31 UTC.
Position N 56°08' E 015°36'.

Length 176 m; draft 6.7 m.

Type: Passenger vessel. MMSI: 265292000.

Date/timePositionNaut miles runAvg speedWind from/ knotsBaromVisibWave heightAir tempDewpointWater temp
2015-May-30 19:11N 56°08' E 015°36'2 3.0
2015-May-30 18:31N 56°10' E 015°38'0 0.0
2015-May-30 17:28N 56°10' E 015°38'10615.2
2015-May-30 10:29N 55°06' E 018°09'1617.4
2015-May-30 09:33N 54°58' E 018°32'1717.2
2015-May-30 08:34N 54°45' E 018°52'1413.9
2015-May-30 07:33N 54°32' E 018°43'7 7.4
2015-May-30 06:33N 54°33' E 018°30'0 0.0
2015-May-30 05:33N 54°33' E 018°30'8 7.8
2015-May-30 04:33N 54°32' E 018°44'1211.7
2015-May-30 03:33N 54°42' E 018°55'1413.6
2015-May-30 02:34N 54°53' E 018°40'1413.5
2015-May-30 01:33N 55°02' E 018°23'1413.6
2015-May-30 00:33N 55°09' E 018°03'1413.8
2015-May-29 23:34N 55°17' E 017°43'1414.2
2015-May-29 22:33N 55°24' E 017°21'1414.0
2015-May-29 21:32N 55°32' E 017°00'1414.0
2015-May-29 20:33N 55°39' E 016°40'1414.2
2015-May-29 19:33N 55°46' E 016°18'1515.1
2015-May-29 18:34N 55°55' E 015°56'1713.2
2015-May-29 17:15N 56°08' E 015°36'2 2.8
2015-May-29 16:31N 56°10' E 015°38'0 0.0
2015-May-29 15:31N 56°10' E 015°38'0 0.0
2015-May-29 14:31N 56°10' E 015°38'0 0.0
2015-May-29 13:28N 56°10' E 015°38'0 0.0
2015-May-29 12:31N 56°10' E 015°38'0 0.0
2015-May-29 11:31N 56°10' E 015°38'0 0.0
2015-May-29 10:31N 56°10' E 015°38'0 0.0
2015-May-29 09:28N 56°10' E 015°38'0 0.0
2015-May-29 08:31N 56°10' E 015°38'0 0.0
2015-May-29 07:31N 56°10' E 015°38'4 4.1
2015-May-29 06:33N 56°06' E 015°35'11115.3
2015-May-28 23:19N 55°04' E 018°17'1216.2
2015-May-28 22:34N 54°57' E 018°34'1616.5
2015-May-28 21:34N 54°44' E 018°52'1312.9
2015-May-28 20:34N 54°32' E 018°48'1010.2
2015-May-28 19:32N 54°33' E 018°30'0 0.0
2015-May-28 18:33N 54°33' E 018°30'8 8.2
2015-May-28 17:34N 54°32' E 018°44'1413.8
2015-May-28 16:34N 54°46' E 018°50'1817.7
2015-May-28 15:34N 54°59' E 018°29'2117.6
2015-May-28 14:22N 55°10' E 017°59'8717.8
2015-May-28 09:29N 55°58' E 015°50'1313.9
2015-May-28 08:33N 56°08' E 015°36'2 1.9
2015-May-28 07:29N 56°10' E 015°38'0 0.4
2015-May-28 06:34N 56°10' E 015°37'1311.7
2015-May-28 05:27N 55°59' E 015°49'7414.5
2015-May-28 00:20N 55°18' E 017°39'1215.0
2015-May-27 23:33N 55°12' E 017°56'1515.1
2015-May-27 22:33N 55°03' E 018°18'1414.5
2015-May-27 21:33N 54°54' E 018°38'1515.5
2015-May-27 20:33N 54°43' E 018°55'1312.9
2015-May-27 19:33N 54°32' E 018°44'8 7.6
2015-May-27 18:32N 54°33' E 018°30'0 0.0
2015-May-27 17:32N 54°33' E 018°30'8 8.4
2015-May-27 16:33N 54°32' E 018°44'1413.7
2015-May-27 15:33N 54°46' E 018°51'1717.4
2015-May-27 14:33N 54°59' E 018°31'2217.5
2015-May-27 13:19N 55°10' E 017°59'9916.5
2015-May-27 07:18N 56°08' E 015°36'3 3.3
2015-May-27 06:32N 56°10' E 015°38'0 0.2
2015-May-27 05:34N 56°10' E 015°38'7815.5
2015-May-27 00:32N 55°22' E 017°27'1616.8
2015-May-26 23:33N 55°14' E 017°52'1716.7
2015-May-26 22:31N 55°05' E 018°17'1616.7
2015-May-26 21:34N 54°56' E 018°41'1817.6
2015-May-26 20:34N 54°41' E 018°57'1413.8
2015-May-26 19:33N 54°32' E 018°38'5 4.8
2015-May-26 18:33N 54°33' E 018°30'0 0.0
2015-May-26 17:33N 54°33' E 018°30'8 8.3
2015-May-26 16:33N 54°32' E 018°45'1313.1
2015-May-26 15:34N 54°45' E 018°51'1717.0
2015-May-26 14:33N 54°57' E 018°30'1716.8
2015-May-26 13:32N 55°08' E 018°07'1716.9
2015-May-26 12:33N 55°17' E 017°43'3416.9
2015-May-26 10:32N 55°35' E 016°53'5415.8
2015-May-26 07:06N 56°08' E 015°36'2 2.8
2015-May-26 06:21N 56°10' E 015°38'0 0.0
2015-May-26 05:27N 56°10' E 015°38'5 5.2
2015-May-26 04:30N 56°06' E 015°34'1814.0
2015-May-26 03:12N 55°55' E 016°01'3914.9
2015-May-26 00:33N 55°33' E 016°59'1515.1
2015-May-25 23:33N 55°24' E 017°21'1514.8
2015-May-25 22:33N 55°16' E 017°42'1515.0
2015-May-25 21:33N 55°08' E 018°05'1515.4
2015-May-25 20:34N 54°60' E 018°27'1615.7
2015-May-25 19:34N 54°49' E 018°46'1313.5
2015-May-25 18:34N 54°36' E 018°54'1212.5
2015-May-25 17:34N 54°32' E 018°34'2 2.2
2015-May-25 16:32N 54°33' E 018°30'0 0.0
2015-May-25 15:33N 54°33' E 018°30'0 0.0
2015-May-25 14:32N 54°33' E 018°30'0 0.0
2015-May-25 13:32N 54°33' E 018°30'0 0.0
2015-May-25 12:32N 54°33' E 018°30'0 0.0
2015-May-25 11:32N 54°33' E 018°30'0 0.0
2015-May-25 10:32N 54°33' E 018°30'0 0.0
2015-May-25 09:32N 54°33' E 018°30'0 0.0
2015-May-25 08:32N 54°33' E 018°30'0 0.0
2015-May-25 07:32N 54°33' E 018°30'2 2.1
2015-May-25 06:34N 54°32' E 018°34'1212.3
2015-May-25 05:33N 54°36' E 018°54'1313.1
2015-May-25 04:33N 54°49' E 018°46'1414.5
2015-May-25 03:33N 54°59' E 018°29'1514.5
2015-May-25 02:33N 55°08' E 018°08'1514.6
2015-May-25 01:34N 55°16' E 017°47'1714.6
2015-May-25 00:23N 55°25' E 017°21'1214.6
2015-May-24 23:33N 55°32' E 017°04'2014.6
2015-May-24 22:12N 55°42' E 016°34'1414.6
2015-May-24 21:14N 55°50' E 016°13'1014.5
2015-May-24 20:33N 55°55' E 015°58'1813.0
2015-May-24 19:12N 56°08' E 015°36'2 3.6
2015-May-24 18:31N 56°10' E 015°38'2 1.7
2015-May-24 17:33N 56°09' E 015°36'1414.2
2015-May-24 16:33N 55°57' E 015°51'2316.7
2015-May-24 15:12N 55°45' E 016°26'1216.8
2015-May-24 14:30N 55°39' E 016°43'5116.5
2015-May-24 11:25N 55°10' E 017°57'1416.4
2015-May-24 10:33N 55°03' E 018°18'1616.3
2015-May-24 09:33N 54°52' E 018°40'1616.2
2015-May-24 08:33N 54°39' E 018°57'1413.7
2015-May-24 07:33N 54°32' E 018°37'4 4.1
2015-May-24 06:33N 54°33' E 018°30'0 0.0
2015-May-24 05:34N 54°33' E 018°30'9 9.0
2015-May-24 04:33N 54°32' E 018°46'1313.3
2015-May-24 03:34N 54°45' E 018°51'1716.5
2015-May-24 02:34N 54°57' E 018°33'1716.6
2015-May-24 01:33N 55°07' E 018°09'1716.7
2015-May-24 00:32N 55°17' E 017°44'1616.6
2015-May-23 23:33N 55°25' E 017°20'7314.5
2015-May-23 18:32N 56°10' E 015°38'0 0.0
2015-May-23 17:32N 56°10' E 015°38'10015.5
2015-May-23 11:04N 55°10' E 017°59'1016.8
2015-May-23 10:30N 55°05' E 018°13'1616.8
2015-May-23 09:33N 54°55' E 018°36'1716.8
2015-May-23 08:33N 54°43' E 018°55'1313.3
2015-May-23 07:34N 54°32' E 018°42'7 6.5
2015-May-23 06:31N 54°33' E 018°30'0 0.0
2015-May-23 05:33N 54°33' E 018°30'8 8.1
2015-May-23 04:34N 54°32' E 018°44'1211.9
2015-May-23 03:33N 54°43' E 018°54'1414.1
2015-May-23 02:33N 54°53' E 018°39'1413.9
2015-May-23 01:33N 55°02' E 018°21'1414.0
2015-May-23 00:33N 55°10' E 017°60'10013.6
2015-May-22 17:14N 56°08' E 015°36'2 3.6
2015-May-22 16:32N 56°10' E 015°38'0 0.0
2015-May-22 15:32N 56°10' E 015°38'0 0.0
2015-May-22 14:32N 56°10' E 015°38'0 0.0
2015-May-22 13:29N 56°10' E 015°38'0 0.0
2015-May-22 12:32N 56°10' E 015°38'0 0.0
2015-May-22 11:29N 56°10' E 015°38'0 0.0
2015-May-22 10:32N 56°10' E 015°38'0 0.0
2015-May-22 09:29N 56°10' E 015°38'0 0.0
2015-May-22 08:32N 56°10' E 015°38'0 0.0
2015-May-22 07:32N 56°10' E 015°38'4 3.9
2015-May-22 06:34N 56°07' E 015°35'1714.4
2015-May-22 05:23N 55°55' E 015°58'1815.7
2015-May-22 04:14N 55°45' E 016°24'5915.9
2015-May-22 00:33N 55°14' E 017°52'1615.7
2015-May-21 23:32N 55°05' E 018°14'1515.5
2015-May-21 22:33N 54°56' E 018°36'1615.9
2015-May-21 21:33N 54°44' E 018°53'1312.9
2015-May-21 20:33N 54°32' E 018°46'9 8.9
2015-May-21 19:31N 54°33' E 018°30'0 0.0
2015-May-21 18:31N 54°33' E 018°30'8 8.4
2015-May-21 17:34N 54°32' E 018°44'1413.6
2015-May-21 16:34N 54°45' E 018°51'1818.2
2015-May-21 15:33N 54°59' E 018°29'1717.5
2015-May-21 14:33N 55°09' E 018°05'2017.5
2015-May-21 13:25N 55°20' E 017°35'8316.8
2015-May-21 08:29N 56°08' E 015°36'2 2.1
2015-May-21 07:32N 56°10' E 015°38'1 0.7
2015-May-21 06:33N 56°09' E 015°37'11514.4
2015-May-20 22:34N 55°02' E 018°22'1515.0
2015-May-20 21:33N 54°52' E 018°41'1514.9
2015-May-20 20:33N 54°40' E 018°57'1313.0
2015-May-20 19:34N 54°32' E 018°40'  
Track history (hours):
 
Tides and Currents Weather Stations Pressure Air Temp Water Temp Dewpoint Dewpoint Depression Visibility Wind Speed Wind Dir Waves Ship Positions

Stena Germanica

Last reported at 2015-May-30 19:11 UTC. Time now 2015-May-30 20:31 UTC.
Position N 56°08' E 015°36'.

Length 176 m; draft 6.7 m.

Type: Passenger vessel. MMSI: 265292000.

Date/timePositionNaut miles runAvg speedWind from/ knotsBaromVisibWave heightAir tempDewpointWater temp
2015-May-30 19:11N 56°08' E 015°36'2 3.0
2015-May-30 18:31N 56°10' E 015°38'0 0.0
2015-May-30 17:28N 56°10' E 015°38'10615.2
2015-May-30 10:29N 55°06' E 018°09'1617.4
2015-May-30 09:33N 54°58' E 018°32'1717.2
2015-May-30 08:34N 54°45' E 018°52'1413.9
2015-May-30 07:33N 54°32' E 018°43'7 7.4
2015-May-30 06:33N 54°33' E 018°30'0 0.0
2015-May-30 05:33N 54°33' E 018°30'8 7.8
2015-May-30 04:33N 54°32' E 018°44'1211.7
2015-May-30 03:33N 54°42' E 018°55'1413.6
2015-May-30 02:34N 54°53' E 018°40'1413.5
2015-May-30 01:33N 55°02' E 018°23'1413.6
2015-May-30 00:33N 55°09' E 018°03'1413.8
2015-May-29 23:34N 55°17' E 017°43'1414.2
2015-May-29 22:33N 55°24' E 017°21'1414.0
2015-May-29 21:32N 55°32' E 017°00'1414.0
2015-May-29 20:33N 55°39' E 016°40'1414.2
2015-May-29 19:33N 55°46' E 016°18'1515.1
2015-May-29 18:34N 55°55' E 015°56'1713.2
2015-May-29 17:15N 56°08' E 015°36'2 2.8
2015-May-29 16:31N 56°10' E 015°38'0 0.0
2015-May-29 15:31N 56°10' E 015°38'0 0.0
2015-May-29 14:31N 56°10' E 015°38'0 0.0
2015-May-29 13:28N 56°10' E 015°38'0 0.0
2015-May-29 12:31N 56°10' E 015°38'0 0.0
2015-May-29 11:31N 56°10' E 015°38'0 0.0
2015-May-29 10:31N 56°10' E 015°38'0 0.0
2015-May-29 09:28N 56°10' E 015°38'0 0.0
2015-May-29 08:31N 56°10' E 015°38'0 0.0
2015-May-29 07:31N 56°10' E 015°38'4 4.1
2015-May-29 06:33N 56°06' E 015°35'11115.3
2015-May-28 23:19N 55°04' E 018°17'1216.2
2015-May-28 22:34N 54°57' E 018°34'1616.5
2015-May-28 21:34N 54°44' E 018°52'1312.9
2015-May-28 20:34N 54°32' E 018°48'1010.2
2015-May-28 19:32N 54°33' E 018°30'0 0.0
2015-May-28 18:33N 54°33' E 018°30'8 8.2
2015-May-28 17:34N 54°32' E 018°44'1413.8
2015-May-28 16:34N 54°46' E 018°50'1817.7
2015-May-28 15:34N 54°59' E 018°29'2117.6
2015-May-28 14:22N 55°10' E 017°59'8717.8
2015-May-28 09:29N 55°58' E 015°50'1313.9
2015-May-28 08:33N 56°08' E 015°36'2 1.9
2015-May-28 07:29N 56°10' E 015°38'0 0.4
2015-May-28 06:34N 56°10' E 015°37'1311.7
2015-May-28 05:27N 55°59' E 015°49'7414.5
2015-May-28 00:20N 55°18' E 017°39'1215.0
2015-May-27 23:33N 55°12' E 017°56'1515.1
2015-May-27 22:33N 55°03' E 018°18'1414.5
2015-May-27 21:33N 54°54' E 018°38'1515.5
2015-May-27 20:33N 54°43' E 018°55'1312.9
2015-May-27 19:33N 54°32' E 018°44'8 7.6
2015-May-27 18:32N 54°33' E 018°30'0 0.0
2015-May-27 17:32N 54°33' E 018°30'8 8.4
2015-May-27 16:33N 54°32' E 018°44'1413.7
2015-May-27 15:33N 54°46' E 018°51'1717.4
2015-May-27 14:33N 54°59' E 018°31'2217.5
2015-May-27 13:19N 55°10' E 017°59'9916.5
2015-May-27 07:18N 56°08' E 015°36'3 3.3
2015-May-27 06:32N 56°10' E 015°38'0 0.2
2015-May-27 05:34N 56°10' E 015°38'7815.5
2015-May-27 00:32N 55°22' E 017°27'1616.8
2015-May-26 23:33N 55°14' E 017°52'1716.7
2015-May-26 22:31N 55°05' E 018°17'1616.7
2015-May-26 21:34N 54°56' E 018°41'1817.6
2015-May-26 20:34N 54°41' E 018°57'1413.8
2015-May-26 19:33N 54°32' E 018°38'5 4.8
2015-May-26 18:33N 54°33' E 018°30'0 0.0
2015-May-26 17:33N 54°33' E 018°30'8 8.3
2015-May-26 16:33N 54°32' E 018°45'1313.1
2015-May-26 15:34N 54°45' E 018°51'1717.0
2015-May-26 14:33N 54°57' E 018°30'1716.8
2015-May-26 13:32N 55°08' E 018°07'1716.9
2015-May-26 12:33N 55°17' E 017°43'3416.9
2015-May-26 10:32N 55°35' E 016°53'5415.8
2015-May-26 07:06N 56°08' E 015°36'2 2.8
2015-May-26 06:21N 56°10' E 015°38'0 0.0
2015-May-26 05:27N 56°10' E 015°38'5 5.2
2015-May-26 04:30N 56°06' E 015°34'1814.0
2015-May-26 03:12N 55°55' E 016°01'3914.9
2015-May-26 00:33N 55°33' E 016°59'1515.1
2015-May-25 23:33N 55°24' E 017°21'1514.8
2015-May-25 22:33N 55°16' E 017°42'1515.0
2015-May-25 21:33N 55°08' E 018°05'1515.4
2015-May-25 20:34N 54°60' E 018°27'1615.7
2015-May-25 19:34N 54°49' E 018°46'1313.5
2015-May-25 18:34N 54°36' E 018°54'1212.5
2015-May-25 17:34N 54°32' E 018°34'2 2.2
2015-May-25 16:32N 54°33' E 018°30'0 0.0
2015-May-25 15:33N 54°33' E 018°30'0 0.0
2015-May-25 14:32N 54°33' E 018°30'0 0.0
2015-May-25 13:32N 54°33' E 018°30'0 0.0
2015-May-25 12:32N 54°33' E 018°30'0 0.0
2015-May-25 11:32N 54°33' E 018°30'0 0.0
2015-May-25 10:32N 54°33' E 018°30'0 0.0
2015-May-25 09:32N 54°33' E 018°30'0 0.0
2015-May-25 08:32N 54°33' E 018°30'0 0.0
2015-May-25 07:32N 54°33' E 018°30'2 2.1
2015-May-25 06:34N 54°32' E 018°34'1212.3
2015-May-25 05:33N 54°36' E 018°54'1313.1
2015-May-25 04:33N 54°49' E 018°46'1414.5
2015-May-25 03:33N 54°59' E 018°29'1514.5
2015-May-25 02:33N 55°08' E 018°08'1514.6
2015-May-25 01:34N 55°16' E 017°47'1714.6
2015-May-25 00:23N 55°25' E 017°21'1214.6
2015-May-24 23:33N 55°32' E 017°04'2014.6
2015-May-24 22:12N 55°42' E 016°34'1414.6
2015-May-24 21:14N 55°50' E 016°13'1014.5
2015-May-24 20:33N 55°55' E 015°58'1813.0
2015-May-24 19:12N 56°08' E 015°36'2 3.6
2015-May-24 18:31N 56°10' E 015°38'2 1.7
2015-May-24 17:33N 56°09' E 015°36'1414.2
2015-May-24 16:33N 55°57' E 015°51'2316.7
2015-May-24 15:12N 55°45' E 016°26'1216.8
2015-May-24 14:30N 55°39' E 016°43'5116.5
2015-May-24 11:25N 55°10' E 017°57'1416.4
2015-May-24 10:33N 55°03' E 018°18'1616.3
2015-May-24 09:33N 54°52' E 018°40'1616.2
2015-May-24 08:33N 54°39' E 018°57'1413.7
2015-May-24 07:33N 54°32' E 018°37'4 4.1
2015-May-24 06:33N 54°33' E 018°30'0 0.0
2015-May-24 05:34N 54°33' E 018°30'9 9.0
2015-May-24 04:33N 54°32' E 018°46'1313.3
2015-May-24 03:34N 54°45' E 018°51'1716.5
2015-May-24 02:34N 54°57' E 018°33'1716.6
2015-May-24 01:33N 55°07' E 018°09'1716.7
2015-May-24 00:32N 55°17' E 017°44'1616.6
2015-May-23 23:33N 55°25' E 017°20'7314.5
2015-May-23 18:32N 56°10' E 015°38'0 0.0
2015-May-23 17:32N 56°10' E 015°38'10015.5
2015-May-23 11:04N 55°10' E 017°59'1016.8
2015-May-23 10:30N 55°05' E 018°13'1616.8
2015-May-23 09:33N 54°55' E 018°36'1716.8
2015-May-23 08:33N 54°43' E 018°55'1313.3
2015-May-23 07:34N 54°32' E 018°42'7 6.5
2015-May-23 06:31N 54°33' E 018°30'0 0.0
2015-May-23 05:33N 54°33' E 018°30'8 8.1
2015-May-23 04:34N 54°32' E 018°44'1211.9
2015-May-23 03:33N 54°43' E 018°54'1414.1
2015-May-23 02:33N 54°53' E 018°39'1413.9
2015-May-23 01:33N 55°02' E 018°21'1414.0
2015-May-23 00:33N 55°10' E 017°60'10013.6
2015-May-22 17:14N 56°08' E 015°36'2 3.6
2015-May-22 16:32N 56°10' E 015°38'0 0.0
2015-May-22 15:32N 56°10' E 015°38'0 0.0
2015-May-22 14:32N 56°10' E 015°38'0 0.0
2015-May-22 13:29N 56°10' E 015°38'0 0.0
2015-May-22 12:32N 56°10' E 015°38'0 0.0
2015-May-22 11:29N 56°10' E 015°38'0 0.0
2015-May-22 10:32N 56°10' E 015°38'0 0.0
2015-May-22 09:29N 56°10' E 015°38'0 0.0
2015-May-22 08:32N 56°10' E 015°38'0 0.0
2015-May-22 07:32N 56°10' E 015°38'4 3.9
2015-May-22 06:34N 56°07' E 015°35'1714.4
2015-May-22 05:23N 55°55' E 015°58'1815.7
2015-May-22 04:14N 55°45' E 016°24'5915.9
2015-May-22 00:33N 55°14' E 017°52'1615.7
2015-May-21 23:32N 55°05' E 018°14'1515.5
2015-May-21 22:33N 54°56' E 018°36'1615.9
2015-May-21 21:33N 54°44' E 018°53'1312.9
2015-May-21 20:33N 54°32' E 018°46'9 8.9
2015-May-21 19:31N 54°33' E 018°30'0 0.0
2015-May-21 18:31N 54°33' E 018°30'8 8.4
2015-May-21 17:34N 54°32' E 018°44'1413.6
2015-May-21 16:34N 54°45' E 018°51'1818.2
2015-May-21 15:33N 54°59' E 018°29'1717.5
2015-May-21 14:33N 55°09' E 018°05'2017.5
2015-May-21 13:25N 55°20' E 017°35'8316.8
2015-May-21 08:29N 56°08' E 015°36'2 2.1
2015-May-21 07:32N 56°10' E 015°38'1 0.7
2015-May-21 06:33N 56°09' E 015°37'11514.4
2015-May-20 22:34N 55°02' E 018°22'1515.0
2015-May-20 21:33N 54°52' E 018°41'1514.9
2015-May-20 20:33N 54°40' E 018°57'1313.0
2015-May-20 19:34N 54°32' E 018°40'  

Dump ship's entire track history